createdAt,value
2022-08-17T00:00:34.184Z,18.37
2022-08-17T00:05:58.820Z,18.33
2022-08-17T00:11:01.591Z,18.32
2022-08-17T00:16:08.758Z,18.28
2022-08-17T00:21:11.827Z,18.16
2022-08-17T00:26:16.118Z,18.05
2022-08-17T00:31:39.248Z,17.99
2022-08-17T00:36:41.345Z,17.89
2022-08-17T00:41:43.120Z,17.81
2022-08-17T00:46:45.025Z,17.79
2022-08-17T00:51:50.541Z,17.53
2022-08-17T00:56:56.728Z,17.32
2022-08-17T01:01:59.206Z,17.30
2022-08-17T01:07:03.408Z,17.37
2022-08-17T01:12:08.456Z,17.46
2022-08-17T01:17:10.507Z,17.53
2022-08-17T01:22:11.982Z,17.49
2022-08-17T01:27:15.080Z,17.41
2022-08-17T01:32:20.189Z,17.36
2022-08-17T01:37:29.988Z,17.32
2022-08-17T01:42:46.573Z,17.36
2022-08-17T01:47:48.379Z,17.38
2022-08-17T01:52:56.401Z,17.44
2022-08-17T01:57:58.211Z,17.44
2022-08-17T02:03:00.538Z,17.39
2022-08-17T02:08:03.647Z,17.27
2022-08-17T02:13:07.333Z,17.21
2022-08-17T02:18:10.315Z,17.17
2022-08-17T02:23:13.171Z,17.21
2022-08-17T02:28:15.128Z,17.12
2022-08-17T02:33:16.711Z,17.14
2022-08-17T02:38:21.879Z,17.23
2022-08-17T02:43:23.390Z,17.25
2022-08-17T02:48:29.708Z,17.27
2022-08-17T02:53:36.165Z,17.28
2022-08-17T02:58:37.881Z,17.22
2022-08-17T03:03:40.012Z,17.18
2022-08-17T03:08:41.527Z,17.17
2022-08-17T03:13:43.037Z,17.16
2022-08-17T03:18:44.555Z,16.99
2022-08-17T03:23:46.119Z,16.93
2022-08-17T03:28:47.792Z,16.89
2022-08-17T03:33:49.409Z,16.94
2022-08-17T03:38:51.074Z,16.97
2022-08-17T03:43:52.705Z,16.96
2022-08-17T03:49:13.104Z,16.93
2022-08-17T03:54:33.172Z,16.90
2022-08-17T03:59:36.216Z,16.77
2022-08-17T04:04:38.480Z,16.71
2022-08-17T04:09:40.030Z,16.62
2022-08-17T04:14:51.626Z,16.62
2022-08-17T04:19:56.275Z,16.71
2022-08-17T04:24:57.914Z,16.73
2022-08-17T04:30:00.974Z,16.68
2022-08-17T04:35:02.507Z,16.69
2022-08-17T04:40:22.851Z,16.69
2022-08-17T04:45:32.427Z,16.70
2022-08-17T04:50:36.030Z,16.73
2022-08-17T04:55:38.161Z,16.81
2022-08-17T05:00:40.092Z,16.85
2022-08-17T05:05:43.337Z,16.85
2022-08-17T05:10:45.811Z,16.92
2022-08-17T05:15:49.710Z,16.98
2022-08-17T05:20:52.534Z,17.05
2022-08-17T05:25:56.393Z,17.25
2022-08-17T05:31:01.312Z,17.32
2022-08-17T05:36:05.351Z,17.39
2022-08-17T05:41:08.231Z,17.48
2022-08-17T05:46:27.361Z,17.68
2022-08-17T05:51:53.012Z,17.86
2022-08-17T05:57:06.680Z,18.02
2022-08-17T06:02:23.328Z,18.11
2022-08-17T06:07:31.593Z,18.34
2022-08-17T06:12:57.591Z,18.41
2022-08-17T06:18:05.846Z,18.67
2022-08-17T06:23:12.722Z,18.75
2022-08-17T06:28:18.782Z,18.81
2022-08-17T06:33:26.643Z,18.89
2022-08-17T06:38:41.210Z,19.07
2022-08-17T06:44:06.866Z,19.35
2022-08-17T06:49:30.155Z,19.64
2022-08-17T06:54:39.371Z,19.73
2022-08-17T06:59:56.451Z,19.78
2022-08-17T07:05:01.704Z,19.80
2022-08-17T07:10:03.610Z,20.18
2022-08-17T07:15:12.487Z,20.46
2022-08-17T07:20:23.307Z,20.71
2022-08-17T07:25:25.783Z,20.96
2022-08-17T07:30:45.554Z,21.09
2022-08-17T07:35:50.017Z,21.17
2022-08-17T07:40:58.038Z,21.54
2022-08-17T07:46:24.041Z,22.05
2022-08-17T07:51:28.767Z,22.27
2022-08-17T07:57:00.386Z,22.30
2022-08-17T08:02:16.268Z,22.28
2022-08-17T08:07:20.216Z,22.21
2022-08-17T08:12:24.680Z,22.29
2022-08-17T08:17:44.797Z,22.26
2022-08-17T08:22:57.768Z,22.71
2022-08-17T08:28:27.538Z,22.65
2022-08-17T08:33:49.248Z,22.78
2022-08-17T08:39:02.905Z,22.93
2022-08-17T08:44:59.528Z,23.20
2022-08-17T08:50:07.587Z,23.43
2022-08-17T08:55:34.426Z,23.42
2022-08-17T09:00:44.055Z,23.42
2022-08-17T09:06:33.330Z,23.41
2022-08-17T09:12:01.031Z,23.28
2022-08-17T09:17:14.298Z,23.39
2022-08-17T09:22:26.412Z,23.60
2022-08-17T09:27:34.874Z,23.75
2022-08-17T09:32:39.404Z,23.95
2022-08-17T09:38:02.124Z,24.20
2022-08-17T09:43:19.937Z,24.59
2022-08-17T09:48:29.186Z,24.77
2022-08-17T09:53:32.194Z,24.75
2022-08-17T09:58:52.061Z,24.79
2022-08-17T10:04:18.729Z,24.84
2022-08-17T10:09:55.579Z,25.05
2022-08-17T10:14:59.894Z,25.52
2022-08-17T10:20:17.179Z,26.78
2022-08-17T10:25:54.038Z,26.98
2022-08-17T10:31:30.983Z,26.91
2022-08-17T10:36:52.415Z,27.68
2022-08-17T10:41:59.227Z,29.93
2022-08-17T10:47:14.397Z,31.12
2022-08-17T10:52:28.058Z,29.80
2022-08-17T10:57:29.660Z,29.48
2022-08-17T11:02:50.971Z,31.16
2022-08-17T11:08:14.454Z,31.81
2022-08-17T11:13:35.404Z,32.23
2022-08-17T11:19:08.571Z,31.89
2022-08-17T11:24:14.727Z,31.32
2022-08-17T11:29:24.776Z,30.62
2022-08-17T11:34:29.982Z,29.81
2022-08-17T11:39:34.826Z,29.90
2022-08-17T11:44:59.541Z,29.68
2022-08-17T11:50:36.646Z,29.62
2022-08-17T11:55:41.868Z,29.90
2022-08-17T12:00:46.324Z,30.65
2022-08-17T12:05:48.440Z,30.98
2022-08-17T12:10:56.005Z,30.70
2022-08-17T12:15:58.332Z,31.06
2022-08-17T12:21:22.157Z,31.07
2022-08-17T12:26:31.606Z,30.37
2022-08-17T12:31:47.192Z,30.08
2022-08-17T12:36:51.309Z,29.95
2022-08-17T12:42:01.963Z,29.63
2022-08-17T12:47:19.354Z,29.22
2022-08-17T12:52:26.743Z,28.94
2022-08-17T12:57:47.568Z,28.53
2022-08-17T13:03:21.725Z,28.23
2022-08-17T13:08:45.466Z,27.98
2022-08-17T13:13:54.833Z,27.83
2022-08-17T13:19:15.092Z,27.60
2022-08-17T13:24:38.206Z,27.43
2022-08-17T13:29:52.968Z,27.31
2022-08-17T13:35:12.867Z,27.26
2022-08-17T13:40:18.185Z,27.37
2022-08-17T13:45:36.514Z,27.36
2022-08-17T13:50:47.674Z,27.27
2022-08-17T13:55:59.224Z,27.12
2022-08-17T14:01:34.049Z,27.08
2022-08-17T14:06:53.984Z,27.02
2022-08-17T14:11:58.170Z,27.05
2022-08-17T14:16:59.789Z,27.08
2022-08-17T14:22:01.791Z,27.00
2022-08-17T14:27:05.341Z,26.86
2022-08-17T14:32:17.725Z,26.66
2022-08-17T14:37:21.088Z,26.68
2022-08-17T14:42:27.053Z,26.62
2022-08-17T14:47:28.594Z,26.71
2022-08-17T14:52:30.426Z,26.72
2022-08-17T14:57:34.078Z,26.82
2022-08-17T15:02:54.691Z,26.88
2022-08-17T15:07:56.349Z,26.81
2022-08-17T15:13:00.182Z,26.77
2022-08-17T15:18:02.383Z,26.70
2022-08-17T15:23:04.372Z,26.71
2022-08-17T15:28:07.371Z,26.71
2022-08-17T15:33:19.047Z,26.64
2022-08-17T15:38:20.645Z,26.55
2022-08-17T15:43:28.390Z,26.47
2022-08-17T15:48:41.716Z,26.39
2022-08-17T15:53:45.818Z,26.20
2022-08-17T15:58:48.668Z,26.04
2022-08-17T16:04:03.975Z,25.92
2022-08-17T16:09:08.897Z,25.90
2022-08-17T16:14:10.418Z,25.90
2022-08-17T16:19:15.338Z,25.93
2022-08-17T16:24:16.859Z,26.05
2022-08-17T16:29:18.498Z,26.21
2022-08-17T16:34:20.027Z,26.19
2022-08-17T16:39:21.627Z,26.07
2022-08-17T16:44:23.572Z,25.59
2022-08-17T16:49:37.465Z,25.30
2022-08-17T16:54:44.377Z,25.00
2022-08-17T16:59:51.332Z,24.82
2022-08-17T17:05:05.818Z,24.77
2022-08-17T17:10:14.117Z,24.67
2022-08-17T17:15:22.010Z,24.33
2022-08-17T17:20:28.366Z,24.23
2022-08-17T17:25:44.500Z,24.13
2022-08-17T17:30:50.303Z,23.97
2022-08-17T17:35:59.085Z,23.84
2022-08-17T17:41:05.489Z,23.72
2022-08-17T17:46:29.162Z,23.65
2022-08-17T17:52:05.899Z,23.55
2022-08-17T17:57:20.485Z,23.38
2022-08-17T18:02:53.160Z,23.28
2022-08-17T18:08:31.927Z,23.07
2022-08-17T18:13:53.505Z,22.96
2022-08-17T18:18:57.651Z,22.86
2022-08-17T18:24:01.262Z,22.79
2022-08-17T18:29:12.594Z,22.75
2022-08-17T18:34:45.808Z,22.75
2022-08-17T18:39:46.846Z,22.61
2022-08-17T18:44:54.331Z,22.60
2022-08-17T18:50:25.477Z,22.51
2022-08-17T18:55:29.231Z,22.41
2022-08-17T19:00:33.691Z,22.34
2022-08-17T19:05:41.969Z,22.28
2022-08-17T19:10:47.145Z,22.27
2022-08-17T19:16:29.918Z,22.22
2022-08-17T19:21:40.270Z,22.30
2022-08-17T19:26:54.452Z,22.31
2022-08-17T19:31:59.294Z,22.35
2022-08-17T19:37:23.242Z,22.24
2022-08-17T19:43:03.114Z,22.26
2022-08-17T19:48:07.557Z,22.29
2022-08-17T19:54:04.816Z,22.32
2022-08-17T19:59:36.368Z,22.27
2022-08-17T20:04:43.056Z,22.12
2022-08-17T20:09:51.623Z,21.94
2022-08-17T20:14:57.612Z,21.71
2022-08-17T20:20:25.856Z,21.18
2022-08-17T20:25:46.835Z,20.73
2022-08-17T20:30:48.759Z,20.53
2022-08-17T20:36:09.951Z,20.13
2022-08-17T20:41:15.393Z,20.01
2022-08-17T20:46:28.892Z,19.89
2022-08-17T20:51:40.138Z,19.93
2022-08-17T20:56:44.692Z,20.06
2022-08-17T21:02:02.618Z,20.13
2022-08-17T21:07:43.030Z,20.22
2022-08-17T21:12:53.950Z,20.15
2022-08-17T21:18:12.734Z,20.12
2022-08-17T21:23:30.249Z,20.08
2022-08-17T21:29:00.348Z,20.11
2022-08-17T21:34:14.880Z,20.08
2022-08-17T21:39:21.433Z,20.07
2022-08-17T21:44:50.299Z,19.90
2022-08-17T21:49:53.492Z,19.83
2022-08-17T21:55:02.286Z,19.81
2022-08-17T22:00:15.978Z,19.75
2022-08-17T22:05:31.880Z,19.72
2022-08-17T22:11:01.084Z,19.64
2022-08-17T22:16:28.319Z,19.66
2022-08-17T22:21:31.159Z,19.61
2022-08-17T22:27:03.075Z,19.56
2022-08-17T22:32:04.953Z,19.55
2022-08-17T22:37:28.381Z,19.42
2022-08-17T22:42:30.042Z,19.33
2022-08-17T22:47:40.899Z,19.29
2022-08-17T22:53:14.001Z,19.25
2022-08-17T22:58:38.248Z,19.06
2022-08-17T23:03:54.994Z,19.02
2022-08-17T23:08:57.602Z,18.96
2022-08-17T23:13:59.370Z,18.94
2022-08-17T23:19:00.915Z,18.85
2022-08-17T23:24:04.626Z,18.86
2022-08-17T23:29:08.907Z,18.87
2022-08-17T23:34:13.131Z,18.79
2022-08-17T23:39:14.666Z,18.82
2022-08-17T23:44:27.628Z,18.79
2022-08-17T23:49:31.185Z,18.73
2022-08-17T23:54:43.503Z,18.67
2022-08-17T23:59:45.126Z,18.79
